sensor_id;sensor_type;location;lat;lon;timestamp;temperature;humidity
54788;DHT22;59598;48.112;16.280;2023-02-15T00:02:24;3.50;1.00
54788;DHT22;59598;48.112;16.280;2023-02-15T00:05:00;3.50;1.00
54788;DHT22;59598;48.112;16.280;2023-02-15T00:07:31;3.40;1.00
54788;DHT22;59598;48.112;16.280;2023-02-15T00:10:06;3.30;1.00
54788;DHT22;59598;48.112;16.280;2023-02-15T00:12:37;3.30;1.00
54788;DHT22;59598;48.112;16.280;2023-02-15T00:15:11;3.30;1.00
54788;DHT22;59598;48.112;16.280;2023-02-15T00:17:43;3.40;1.00
54788;DHT22;59598;48.112;16.280;2023-02-15T00:20:15;3.40;1.00
54788;DHT22;59598;48.112;16.280;2023-02-15T00:22:46;3.40;1.00
54788;DHT22;59598;48.112;16.280;2023-02-15T00:25:17;3.40;1.00
54788;DHT22;59598;48.112;16.280;2023-02-15T00:27:48;3.40;1.00
54788;DHT22;59598;48.112;16.280;2023-02-15T00:30:24;3.40;1.00
54788;DHT22;59598;48.112;16.280;2023-02-15T00:32:55;3.40;1.00
54788;DHT22;59598;48.112;16.280;2023-02-15T00:35:29;3.40;1.00
54788;DHT22;59598;48.112;16.280;2023-02-15T00:38:03;3.40;1.00
54788;DHT22;59598;48.112;16.280;2023-02-15T00:40:34;3.40;1.00
54788;DHT22;59598;48.112;16.280;2023-02-15T00:43:05;3.40;1.00
54788;DHT22;59598;48.112;16.280;2023-02-15T00:45:37;3.40;1.00
54788;DHT22;59598;48.112;16.280;2023-02-15T00:48:08;3.40;1.00
54788;DHT22;59598;48.112;16.280;2023-02-15T00:50:39;3.50;1.00
54788;DHT22;59598;48.112;16.280;2023-02-15T00:53:10;3.50;1.00
54788;DHT22;59598;48.112;16.280;2023-02-15T00:55:42;3.50;1.00
54788;DHT22;59598;48.112;16.280;2023-02-15T00:58:16;3.60;1.00
54788;DHT22;59598;48.112;16.280;2023-02-15T01:00:47;3.50;1.00
54788;DHT22;59598;48.112;16.280;2023-02-15T01:03:21;3.60;1.00
54788;DHT22;59598;48.112;16.280;2023-02-15T01:05:52;3.60;1.00
54788;DHT22;59598;48.112;16.280;2023-02-15T01:08:27;3.50;1.00
54788;DHT22;59598;48.112;16.280;2023-02-15T01:11:08;3.60;1.00
54788;DHT22;59598;48.112;16.280;2023-02-15T01:13:40;3.60;1.00
54788;DHT22;59598;48.112;16.280;2023-02-15T01:16:11;3.60;1.00
54788;DHT22;59598;48.112;16.280;2023-02-15T01:18:42;3.60;1.00
54788;DHT22;59598;48.112;16.280;2023-02-15T01:21:16;3.50;1.00
54788;DHT22;59598;48.112;16.280;2023-02-15T01:23:50;3.50;1.00
54788;DHT22;59598;48.112;16.280;2023-02-15T01:26:25;3.60;1.00
54788;DHT22;59598;48.112;16.280;2023-02-15T01:28:56;3.50;1.00
54788;DHT22;59598;48.112;16.280;2023-02-15T01:31:27;3.50;1.00
54788;DHT22;59598;48.112;16.280;2023-02-15T01:34:00;3.50;1.00
54788;DHT22;59598;48.112;16.280;2023-02-15T01:36:33;3.40;1.00
54788;DHT22;59598;48.112;16.280;2023-02-15T01:39:04;3.30;1.00
54788;DHT22;59598;48.112;16.280;2023-02-15T01:41:36;3.30;1.00
54788;DHT22;59598;48.112;16.280;2023-02-15T01:50:15;3.40;1.00
54788;DHT22;59598;48.112;16.280;2023-02-15T01:55:42;3.50;1.00
54788;DHT22;59598;48.112;16.280;2023-02-15T01:58:15;3.50;1.00
54788;DHT22;59598;48.112;16.280;2023-02-15T02:00:49;3.50;1.00
54788;DHT22;59598;48.112;16.280;2023-02-15T02:03:36;3.50;1.00
54788;DHT22;59598;48.112;16.280;2023-02-15T02:06:12;3.50;1.00
54788;DHT22;59598;48.112;16.280;2023-02-15T02:08:43;3.50;1.00
54788;DHT22;59598;48.112;16.280;2023-02-15T02:11:19;3.50;1.00
54788;DHT22;59598;48.112;16.280;2023-02-15T02:13:53;3.40;1.00
54788;DHT22;59598;48.112;16.280;2023-02-15T02:16:40;3.40;1.00
54788;DHT22;59598;48.112;16.280;2023-02-15T02:34:19;3.40;1.00
54788;DHT22;59598;48.112;16.280;2023-02-15T02:37:15;3.40;1.00
54788;DHT22;59598;48.112;16.280;2023-02-15T02:39:59;3.30;1.00
54788;DHT22;59598;48.112;16.280;2023-02-15T02:42:41;3.20;1.00
54788;DHT22;59598;48.112;16.280;2023-02-15T02:45:24;3.10;1.00
54788;DHT22;59598;48.112;16.280;2023-02-15T02:48:04;3.00;1.00
54788;DHT22;59598;48.112;16.280;2023-02-15T02:50:40;3.00;1.00
54788;DHT22;59598;48.112;16.280;2023-02-15T02:53:11;3.00;1.00
54788;DHT22;59598;48.112;16.280;2023-02-15T02:55:54;3.00;3.90
54788;DHT22;59598;48.112;16.280;2023-02-15T02:58:36;2.90;1.00
54788;DHT22;59598;48.112;16.280;2023-02-15T03:01:24;2.90;5.00
54788;DHT22;59598;48.112;16.280;2023-02-15T03:04:00;2.90;19.10
54788;DHT22;59598;48.112;16.280;2023-02-15T03:06:52;2.90;57.40
54788;DHT22;59598;48.112;16.280;2023-02-15T03:09:33;3.00;35.90
54788;DHT22;59598;48.112;16.280;2023-02-15T03:12:22;3.10;58.70
54788;DHT22;59598;48.112;16.280;2023-02-15T03:15:07;3.00;1.00
54788;DHT22;59598;48.112;16.280;2023-02-15T03:17:46;3.10;59.40
54788;DHT22;59598;48.112;16.280;2023-02-15T03:20:29;3.10;20.30
54788;DHT22;59598;48.112;16.280;2023-02-15T03:23:04;3.10;1.00
54788;DHT22;59598;48.112;16.280;2023-02-15T03:25:40;3.00;52.20
54788;DHT22;59598;48.112;16.280;2023-02-15T03:28:23;3.00;47.60
54788;DHT22;59598;48.112;16.280;2023-02-15T03:31:00;2.90;11.30
54788;DHT22;59598;48.112;16.280;2023-02-15T03:33:36;2.90;77.40
54788;DHT22;59598;48.112;16.280;2023-02-15T03:36:21;3.00;99.90
54788;DHT22;59598;48.112;16.280;2023-02-15T03:39:25;3.10;96.30
54788;DHT22;59598;48.112;16.280;2023-02-15T03:45:06;3.10;47.10
54788;DHT22;59598;48.112;16.280;2023-02-15T03:47:44;3.00;42.90
54788;DHT22;59598;48.112;16.280;2023-02-15T03:50:29;2.90;51.80
54788;DHT22;59598;48.112;16.280;2023-02-15T03:53:22;3.00;85.60
54788;DHT22;59598;48.112;16.280;2023-02-15T03:55:57;2.90;86.80
54788;DHT22;59598;48.112;16.280;2023-02-15T03:58:30;3.00;66.50
54788;DHT22;59598;48.112;16.280;2023-02-15T04:01:27;2.90;91.50
54788;DHT22;59598;48.112;16.280;2023-02-15T04:04:32;2.90;56.10
54788;DHT22;59598;48.112;16.280;2023-02-15T04:07:08;2.80;95.50
54788;DHT22;59598;48.112;16.280;2023-02-15T04:09:40;2.80;99.90
54788;DHT22;59598;48.112;16.280;2023-02-15T04:12:30;2.70;99.90
54788;DHT22;59598;48.112;16.280;2023-02-15T04:15:04;2.80;99.90
54788;DHT22;59598;48.112;16.280;2023-02-15T04:17:54;2.80;99.90
54788;DHT22;59598;48.112;16.280;2023-02-15T04:20:25;2.80;98.00
54788;DHT22;59598;48.112;16.280;2023-02-15T04:23:14;2.90;81.60
54788;DHT22;59598;48.112;16.280;2023-02-15T04:26:06;3.00;95.50
54788;DHT22;59598;48.112;16.280;2023-02-15T04:28:39;3.10;99.90
54788;DHT22;59598;48.112;16.280;2023-02-15T04:31:12;3.20;99.90
54788;DHT22;59598;48.112;16.280;2023-02-15T04:33:44;3.20;69.80
54788;DHT22;59598;48.112;16.280;2023-02-15T04:36:18;3.20;43.10
54788;DHT22;59598;48.112;16.280;2023-02-15T04:38:49;3.20;62.60
54788;DHT22;59598;48.112;16.280;2023-02-15T04:41:20;3.20;82.70
54788;DHT22;59598;48.112;16.280;2023-02-15T04:43:53;3.30;62.40
54788;DHT22;59598;48.112;16.280;2023-02-15T04:46:28;3.40;90.00
54788;DHT22;59598;48.112;16.280;2023-02-15T04:48:59;3.30;28.00
54788;DHT22;59598;48.112;16.280;2023-02-15T04:51:30;3.30;35.10
54788;DHT22;59598;48.112;16.280;2023-02-15T04:54:01;3.20;63.30
54788;DHT22;59598;48.112;16.280;2023-02-15T04:56:33;3.20;78.80
54788;DHT22;59598;48.112;16.280;2023-02-15T04:59:06;3.10;62.90
54788;DHT22;59598;48.112;16.280;2023-02-15T05:01:37;3.20;99.00
54788;DHT22;59598;48.112;16.280;2023-02-15T05:04:13;3.10;76.00
54788;DHT22;59598;48.112;16.280;2023-02-15T05:06:44;3.20;99.90
54788;DHT22;59598;48.112;16.280;2023-02-15T05:09:19;3.30;99.90
54788;DHT22;59598;48.112;16.280;2023-02-15T05:11:50;3.40;77.60
54788;DHT22;59598;48.112;16.280;2023-02-15T05:14:24;3.50;61.90
54788;DHT22;59598;48.112;16.280;2023-02-15T05:16:57;3.50;24.90
54788;DHT22;59598;48.112;16.280;2023-02-15T05:19:32;3.50;1.00
54788;DHT22;59598;48.112;16.280;2023-02-15T05:22:03;3.40;1.00
54788;DHT22;59598;48.112;16.280;2023-02-15T05:24:34;3.40;3.10
54788;DHT22;59598;48.112;16.280;2023-02-15T05:27:24;3.30;20.40
54788;DHT22;59598;48.112;16.280;2023-02-15T05:30:14;3.30;31.00
54788;DHT22;59598;48.112;16.280;2023-02-15T05:32:45;3.30;17.70
54788;DHT22;59598;48.112;16.280;2023-02-15T05:35:18;3.20;4.20
54788;DHT22;59598;48.112;16.280;2023-02-15T05:37:51;3.20;1.00
54788;DHT22;59598;48.112;16.280;2023-02-15T05:40:25;3.20;1.00
54788;DHT22;59598;48.112;16.280;2023-02-15T05:42:57;3.20;24.30
54788;DHT22;59598;48.112;16.280;2023-02-15T05:45:33;3.10;15.00
54788;DHT22;59598;48.112;16.280;2023-02-15T05:48:05;3.10;25.50
54788;DHT22;59598;48.112;16.280;2023-02-15T05:50:36;3.10;4.20
54788;DHT22;59598;48.112;16.280;2023-02-15T05:53:07;3.20;4.50
54788;DHT22;59598;48.112;16.280;2023-02-15T05:55:41;3.10;28.30
54788;DHT22;59598;48.112;16.280;2023-02-15T05:58:14;3.00;20.90
54788;DHT22;59598;48.112;16.280;2023-02-15T06:00:45;3.00;19.20
54788;DHT22;59598;48.112;16.280;2023-02-15T06:03:17;3.00;33.50
54788;DHT22;59598;48.112;16.280;2023-02-15T06:05:48;3.00;49.10
54788;DHT22;59598;48.112;16.280;2023-02-15T06:08:21;2.90;55.90
54788;DHT22;59598;48.112;16.280;2023-02-15T06:10:52;3.00;64.20
54788;DHT22;59598;48.112;16.280;2023-02-15T06:13:23;3.00;92.90
54788;DHT22;59598;48.112;16.280;2023-02-15T06:15:55;3.10;51.50
54788;DHT22;59598;48.112;16.280;2023-02-15T06:18:29;3.20;38.40
54788;DHT22;59598;48.112;16.280;2023-02-15T06:21:01;3.20;59.30
54788;DHT22;59598;48.112;16.280;2023-02-15T06:23:35;3.30;56.90
54788;DHT22;59598;48.112;16.280;2023-02-15T06:26:09;3.30;26.40
54788;DHT22;59598;48.112;16.280;2023-02-15T06:28:40;3.30;20.10
54788;DHT22;59598;48.112;16.280;2023-02-15T06:31:12;3.30;1.50
54788;DHT22;59598;48.112;16.280;2023-02-15T06:33:46;3.40;15.90
54788;DHT22;59598;48.112;16.280;2023-02-15T06:36:17;3.40;1.00
54788;DHT22;59598;48.112;16.280;2023-02-15T06:38:51;3.30;1.00
54788;DHT22;59598;48.112;16.280;2023-02-15T06:41:22;3.30;27.30
54788;DHT22;59598;48.112;16.280;2023-02-15T06:43:56;3.30;15.60
54788;DHT22;59598;48.112;16.280;2023-02-15T06:46:27;3.30;19.10
54788;DHT22;59598;48.112;16.280;2023-02-15T06:48:59;3.20;11.00
54788;DHT22;59598;48.112;16.280;2023-02-15T06:51:38;3.30;36.90
54788;DHT22;59598;48.112;16.280;2023-02-15T06:54:11;3.40;39.90
54788;DHT22;59598;48.112;16.280;2023-02-15T06:56:51;3.40;10.30
54788;DHT22;59598;48.112;16.280;2023-02-15T06:59:24;3.50;10.60
54788;DHT22;59598;48.112;16.280;2023-02-15T07:01:56;3.60;11.80
54788;DHT22;59598;48.112;16.280;2023-02-15T07:04:30;3.70;1.00
54788;DHT22;59598;48.112;16.280;2023-02-15T07:07:01;3.80;1.00
54788;DHT22;59598;48.112;16.280;2023-02-15T07:09:32;3.50;1.00
54788;DHT22;59598;48.112;16.280;2023-02-15T07:12:04;3.30;1.00
54788;DHT22;59598;48.112;16.280;2023-02-15T07:15:04;3.40;22.80
54788;DHT22;59598;48.112;16.280;2023-02-15T07:17:40;3.50;5.20
54788;DHT22;59598;48.112;16.280;2023-02-15T07:20:17;3.40;10.30
54788;DHT22;59598;48.112;16.280;2023-02-15T07:22:51;3.50;1.00
54788;DHT22;59598;48.112;16.280;2023-02-15T07:25:23;3.60;2.80
54788;DHT22;59598;48.112;16.280;2023-02-15T07:27:58;3.40;1.00
54788;DHT22;59598;48.112;16.280;2023-02-15T07:30:29;3.40;1.00
54788;DHT22;59598;48.112;16.280;2023-02-15T07:33:01;3.40;1.00
54788;DHT22;59598;48.112;16.280;2023-02-15T07:35:53;3.60;1.00
54788;DHT22;59598;48.112;16.280;2023-02-15T07:38:26;3.60;1.00
54788;DHT22;59598;48.112;16.280;2023-02-15T07:41:08;3.70;1.00
54788;DHT22;59598;48.112;16.280;2023-02-15T07:43:42;3.70;1.00
54788;DHT22;59598;48.112;16.280;2023-02-15T07:46:16;3.70;1.00
54788;DHT22;59598;48.112;16.280;2023-02-15T07:48:47;3.80;1.00
54788;DHT22;59598;48.112;16.280;2023-02-15T07:51:18;4.00;1.00
54788;DHT22;59598;48.112;16.280;2023-02-15T07:53:55;4.10;1.00
54788;DHT22;59598;48.112;16.280;2023-02-15T07:56:27;4.10;1.00
54788;DHT22;59598;48.112;16.280;2023-02-15T07:59:00;4.10;1.00
54788;DHT22;59598;48.112;16.280;2023-02-15T08:01:36;4.10;1.00
54788;DHT22;59598;48.112;16.280;2023-02-15T08:04:07;4.10;1.00
54788;DHT22;59598;48.112;16.280;2023-02-15T08:06:41;4.20;1.00
54788;DHT22;59598;48.112;16.280;2023-02-15T08:09:15;4.30;1.00
54788;DHT22;59598;48.112;16.280;2023-02-15T08:11:48;4.40;1.00
54788;DHT22;59598;48.112;16.280;2023-02-15T08:14:22;4.40;1.00
54788;DHT22;59598;48.112;16.280;2023-02-15T08:16:59;4.10;1.00
54788;DHT22;59598;48.112;16.280;2023-02-15T08:19:33;4.00;1.00
54788;DHT22;59598;48.112;16.280;2023-02-15T08:22:07;4.10;1.00
54788;DHT22;59598;48.112;16.280;2023-02-15T08:24:41;4.30;1.00
54788;DHT22;59598;48.112;16.280;2023-02-15T08:27:18;4.50;1.00
54788;DHT22;59598;48.112;16.280;2023-02-15T08:29:49;4.70;1.00
54788;DHT22;59598;48.112;16.280;2023-02-15T08:32:20;4.80;1.00
54788;DHT22;59598;48.112;16.280;2023-02-15T08:34:51;4.60;1.00
54788;DHT22;59598;48.112;16.280;2023-02-15T08:37:29;4.30;1.00
54788;DHT22;59598;48.112;16.280;2023-02-15T08:40:00;4.40;1.00
54788;DHT22;59598;48.112;16.280;2023-02-15T08:42:39;4.50;1.00
54788;DHT22;59598;48.112;16.280;2023-02-15T08:45:10;4.60;1.00
54788;DHT22;59598;48.112;16.280;2023-02-15T08:47:41;4.70;1.00
54788;DHT22;59598;48.112;16.280;2023-02-15T08:50:14;4.80;1.00
54788;DHT22;59598;48.112;16.280;2023-02-15T08:52:48;4.80;1.00
54788;DHT22;59598;48.112;16.280;2023-02-15T08:55:21;4.60;1.00
54788;DHT22;59598;48.112;16.280;2023-02-15T08:57:52;4.60;1.00
54788;DHT22;59598;48.112;16.280;2023-02-15T09:00:26;4.70;1.00
54788;DHT22;59598;48.112;16.280;2023-02-15T09:03:00;4.90;1.00
54788;DHT22;59598;48.112;16.280;2023-02-15T09:05:31;5.10;1.00
54788;DHT22;59598;48.112;16.280;2023-02-15T09:08:02;5.10;1.00
54788;DHT22;59598;48.112;16.280;2023-02-15T09:10:34;5.00;1.00
54788;DHT22;59598;48.112;16.280;2023-02-15T09:13:05;4.80;1.00
54788;DHT22;59598;48.112;16.280;2023-02-15T09:15:39;5.00;1.00
54788;DHT22;59598;48.112;16.280;2023-02-15T09:18:10;5.10;1.00
54788;DHT22;59598;48.112;16.280;2023-02-15T09:20:43;5.20;1.00
54788;DHT22;59598;48.112;16.280;2023-02-15T09:23:17;5.50;1.00
54788;DHT22;59598;48.112;16.280;2023-02-15T09:25:48;5.50;1.00
54788;DHT22;59598;48.112;16.280;2023-02-15T09:28:20;5.60;1.00
54788;DHT22;59598;48.112;16.280;2023-02-15T09:30:53;5.60;1.00
54788;DHT22;59598;48.112;16.280;2023-02-15T09:33:26;5.70;1.00
54788;DHT22;59598;48.112;16.280;2023-02-15T09:35:57;5.90;1.00
54788;DHT22;59598;48.112;16.280;2023-02-15T09:38:30;6.00;1.00
54788;DHT22;59598;48.112;16.280;2023-02-15T09:53:20;5.50;1.00
54788;DHT22;59598;48.112;16.280;2023-02-15T09:56:25;5.60;1.00
54788;DHT22;59598;48.112;16.280;2023-02-15T10:13:08;6.50;1.00
54788;DHT22;59598;48.112;16.280;2023-02-15T10:27:23;5.90;1.00
54788;DHT22;59598;48.112;16.280;2023-02-15T10:30:06;6.10;1.00
54788;DHT22;59598;48.112;16.280;2023-02-15T10:35:38;6.10;1.00
54788;DHT22;59598;48.112;16.280;2023-02-15T10:44:05;5.50;1.00
54788;DHT22;59598;48.112;16.280;2023-02-15T10:52:50;5.90;1.00
54788;DHT22;59598;48.112;16.280;2023-02-15T11:07:17;6.70;1.00
54788;DHT22;59598;48.112;16.280;2023-02-15T11:10:18;7.00;99.90
54788;DHT22;59598;48.112;16.280;2023-02-15T11:12:58;6.70;99.90
54788;DHT22;59598;48.112;16.280;2023-02-15T11:15:36;6.80;1.00
54788;DHT22;59598;48.112;16.280;2023-02-15T11:21:09;7.20;1.00
54788;DHT22;59598;48.112;16.280;2023-02-15T11:23:44;6.70;1.00
54788;DHT22;59598;48.112;16.280;2023-02-15T11:26:54;6.60;1.00
54788;DHT22;59598;48.112;16.280;2023-02-15T11:29:29;6.90;1.00
54788;DHT22;59598;48.112;16.280;2023-02-15T11:32:54;7.00;99.90
54788;DHT22;59598;48.112;16.280;2023-02-15T11:43:15;6.50;1.00
54788;DHT22;59598;48.112;16.280;2023-02-15T11:45:50;6.80;99.90
54788;DHT22;59598;48.112;16.280;2023-02-15T11:48:22;6.90;99.90
54788;DHT22;59598;48.112;16.280;2023-02-15T11:50:56;7.20;99.90
54788;DHT22;59598;48.112;16.280;2023-02-15T11:53:32;7.70;99.90
54788;DHT22;59598;48.112;16.280;2023-02-15T11:56:04;7.80;99.90
54788;DHT22;59598;48.112;16.280;2023-02-15T11:58:57;8.20;99.90
54788;DHT22;59598;48.112;16.280;2023-02-15T12:01:37;7.70;99.90
54788;DHT22;59598;48.112;16.280;2023-02-15T12:04:34;7.90;99.90
54788;DHT22;59598;48.112;16.280;2023-02-15T12:07:24;7.90;1.00
54788;DHT22;59598;48.112;16.280;2023-02-15T12:12:33;8.10;19.30
54788;DHT22;59598;48.112;16.280;2023-02-15T12:15:11;8.00;12.00
54788;DHT22;59598;48.112;16.280;2023-02-15T12:17:52;8.00;26.00
54788;DHT22;59598;48.112;16.280;2023-02-15T12:20:32;7.80;1.00
54788;DHT22;59598;48.112;16.280;2023-02-15T12:23:12;7.60;12.80
54788;DHT22;59598;48.112;16.280;2023-02-15T12:25:55;7.60;99.90
54788;DHT22;59598;48.112;16.280;2023-02-15T12:28:38;7.20;99.90
54788;DHT22;59598;48.112;16.280;2023-02-15T12:31:21;7.20;77.60
54788;DHT22;59598;48.112;16.280;2023-02-15T12:33:57;7.50;91.50
54788;DHT22;59598;48.112;16.280;2023-02-15T12:36:39;7.80;22.40
54788;DHT22;59598;48.112;16.280;2023-02-15T12:39:19;8.70;1.00
54788;DHT22;59598;48.112;16.280;2023-02-15T12:42:23;9.80;1.00
54788;DHT22;59598;48.112;16.280;2023-02-15T12:45:28;11.30;99.90
54788;DHT22;59598;48.112;16.280;2023-02-15T12:48:19;12.80;99.90
54788;DHT22;59598;48.112;16.280;2023-02-15T12:50:53;13.00;99.90
54788;DHT22;59598;48.112;16.280;2023-02-15T12:53:39;13.00;99.90
54788;DHT22;59598;48.112;16.280;2023-02-15T12:56:12;12.00;99.90
54788;DHT22;59598;48.112;16.280;2023-02-15T12:58:44;10.80;99.90
54788;DHT22;59598;48.112;16.280;2023-02-15T13:01:25;10.80;99.90
54788;DHT22;59598;48.112;16.280;2023-02-15T13:04:06;11.30;99.90
54788;DHT22;59598;48.112;16.280;2023-02-15T13:06:52;11.30;99.90
54788;DHT22;59598;48.112;16.280;2023-02-15T13:12:23;10.70;99.90
54788;DHT22;59598;48.112;16.280;2023-02-15T13:14:58;9.60;99.90
54788;DHT22;59598;48.112;16.280;2023-02-15T13:17:33;9.30;99.90
54788;DHT22;59598;48.112;16.280;2023-02-15T13:20:17;8.90;99.90
54788;DHT22;59598;48.112;16.280;2023-02-15T13:22:51;8.80;99.90
54788;DHT22;59598;48.112;16.280;2023-02-15T13:25:26;9.40;99.90
54788;DHT22;59598;48.112;16.280;2023-02-15T13:28:03;10.30;99.90
54788;DHT22;59598;48.112;16.280;2023-02-15T13:30:38;11.10;99.90
54788;DHT22;59598;48.112;16.280;2023-02-15T13:33:34;11.60;99.90
54788;DHT22;59598;48.112;16.280;2023-02-15T13:47:30;14.20;99.90
54788;DHT22;59598;48.112;16.280;2023-02-15T13:50:25;13.50;99.90
54788;DHT22;59598;48.112;16.280;2023-02-15T13:53:24;12.80;99.90
54788;DHT22;59598;48.112;16.280;2023-02-15T13:59:15;12.60;99.90
54788;DHT22;59598;48.112;16.280;2023-02-15T14:02:05;12.30;99.90
54788;DHT22;59598;48.112;16.280;2023-02-15T14:05:00;12.70;99.90
54788;DHT22;59598;48.112;16.280;2023-02-15T14:08:08;12.80;99.90
54788;DHT22;59598;48.112;16.280;2023-02-15T14:10:59;12.20;99.90
54788;DHT22;59598;48.112;16.280;2023-02-15T14:21:31;12.60;99.90
54788;DHT22;59598;48.112;16.280;2023-02-15T14:24:15;12.50;99.90
54788;DHT22;59598;48.112;16.280;2023-02-15T14:30:00;11.90;99.90
54788;DHT22;59598;48.112;16.280;2023-02-15T14:32:44;11.30;99.90
54788;DHT22;59598;48.112;16.280;2023-02-15T14:35:19;11.20;99.90
54788;DHT22;59598;48.112;16.280;2023-02-15T14:46:38;10.90;99.90
54788;DHT22;59598;48.112;16.280;2023-02-15T14:49:27;10.70;99.90
54788;DHT22;59598;48.112;16.280;2023-02-15T14:52:08;10.30;99.90
54788;DHT22;59598;48.112;16.280;2023-02-15T15:02:20;8.50;99.90
54788;DHT22;59598;48.112;16.280;2023-02-15T15:05:07;7.90;99.90
54788;DHT22;59598;48.112;16.280;2023-02-15T15:07:46;7.50;99.90
54788;DHT22;59598;48.112;16.280;2023-02-15T15:12:59;6.80;99.90
54788;DHT22;59598;48.112;16.280;2023-02-15T15:15:53;6.60;99.90
54788;DHT22;59598;48.112;16.280;2023-02-15T15:27:39;5.50;1.00
54788;DHT22;59598;48.112;16.280;2023-02-15T15:41:49;4.90;1.00
54788;DHT22;59598;48.112;16.280;2023-02-15T15:49:56;4.50;1.00
54788;DHT22;59598;48.112;16.280;2023-02-15T15:52:28;4.40;1.00
54788;DHT22;59598;48.112;16.280;2023-02-15T15:55:19;4.40;1.00
54788;DHT22;59598;48.112;16.280;2023-02-15T15:57:53;4.20;1.00
54788;DHT22;59598;48.112;16.280;2023-02-15T16:03:05;4.00;48.70
54788;DHT22;59598;48.112;16.280;2023-02-15T16:05:38;3.90;90.60
54788;DHT22;59598;48.112;16.280;2023-02-15T16:08:10;3.80;99.90
54788;DHT22;59598;48.112;16.280;2023-02-15T16:10:41;3.70;99.90
54788;DHT22;59598;48.112;16.280;2023-02-15T16:13:16;3.60;99.90
54788;DHT22;59598;48.112;16.280;2023-02-15T16:15:51;3.50;99.90
54788;DHT22;59598;48.112;16.280;2023-02-15T16:18:25;3.40;99.90
54788;DHT22;59598;48.112;16.280;2023-02-15T16:21:02;3.40;99.90
54788;DHT22;59598;48.112;16.280;2023-02-15T16:28:53;3.20;99.90
54788;DHT22;59598;48.112;16.280;2023-02-15T16:31:30;3.10;99.90
54788;DHT22;59598;48.112;16.280;2023-02-15T16:34:14;3.00;99.90
54788;DHT22;59598;48.112;16.280;2023-02-15T16:36:47;2.90;99.90
54788;DHT22;59598;48.112;16.280;2023-02-15T16:39:20;2.80;99.90
54788;DHT22;59598;48.112;16.280;2023-02-15T16:41:54;2.70;99.90
54788;DHT22;59598;48.112;16.280;2023-02-15T16:44:26;2.50;99.90
54788;DHT22;59598;48.112;16.280;2023-02-15T16:46:57;2.30;99.90
54788;DHT22;59598;48.112;16.280;2023-02-15T16:49:29;2.10;99.90
54788;DHT22;59598;48.112;16.280;2023-02-15T16:52:04;2.00;99.90
54788;DHT22;59598;48.112;16.280;2023-02-15T16:54:36;1.90;99.90
54788;DHT22;59598;48.112;16.280;2023-02-15T16:57:19;1.80;99.90
54788;DHT22;59598;48.112;16.280;2023-02-15T17:00:00;1.70;99.90
54788;DHT22;59598;48.112;16.280;2023-02-15T17:02:37;1.70;99.90
54788;DHT22;59598;48.112;16.280;2023-02-15T17:05:15;1.60;99.90
54788;DHT22;59598;48.112;16.280;2023-02-15T17:11:22;1.60;99.90
54788;DHT22;59598;48.112;16.280;2023-02-15T17:14:13;1.60;99.90
54788;DHT22;59598;48.112;16.280;2023-02-15T17:16:58;1.60;99.90
54788;DHT22;59598;48.112;16.280;2023-02-15T17:19:54;1.70;99.90
54788;DHT22;59598;48.112;16.280;2023-02-15T17:22:27;1.60;99.90
54788;DHT22;59598;48.112;16.280;2023-02-15T17:25:02;1.50;99.90
54788;DHT22;59598;48.112;16.280;2023-02-15T17:27:35;1.30;99.90
54788;DHT22;59598;48.112;16.280;2023-02-15T17:30:15;1.10;99.90
54788;DHT22;59598;48.112;16.280;2023-02-15T17:32:56;0.90;99.90
54788;DHT22;59598;48.112;16.280;2023-02-15T17:35:29;0.90;99.90
54788;DHT22;59598;48.112;16.280;2023-02-15T17:38:16;0.80;99.90
54788;DHT22;59598;48.112;16.280;2023-02-15T17:40:47;0.80;99.90
54788;DHT22;59598;48.112;16.280;2023-02-15T17:43:21;0.70;99.90
54788;DHT22;59598;48.112;16.280;2023-02-15T17:45:57;0.80;99.90
54788;DHT22;59598;48.112;16.280;2023-02-15T17:48:41;0.80;99.90
54788;DHT22;59598;48.112;16.280;2023-02-15T17:51:19;0.80;99.90
54788;DHT22;59598;48.112;16.280;2023-02-15T17:53:54;0.80;99.90
54788;DHT22;59598;48.112;16.280;2023-02-15T17:56:44;0.60;99.90
54788;DHT22;59598;48.112;16.280;2023-02-15T17:59:16;0.50;99.90
54788;DHT22;59598;48.112;16.280;2023-02-15T18:01:51;0.50;99.90
54788;DHT22;59598;48.112;16.280;2023-02-15T18:04:40;0.40;99.90
54788;DHT22;59598;48.112;16.280;2023-02-15T18:07:30;0.40;99.90
54788;DHT22;59598;48.112;16.280;2023-02-15T18:10:20;0.30;99.90
54788;DHT22;59598;48.112;16.280;2023-02-15T18:13:10;0.30;99.90
54788;DHT22;59598;48.112;16.280;2023-02-15T18:15:43;0.30;99.90
54788;DHT22;59598;48.112;16.280;2023-02-15T18:18:17;0.40;99.90
54788;DHT22;59598;48.112;16.280;2023-02-15T18:20:51;0.40;99.90
54788;DHT22;59598;48.112;16.280;2023-02-15T18:23:22;0.40;99.90
54788;DHT22;59598;48.112;16.280;2023-02-15T18:25:53;0.40;99.90
54788;DHT22;59598;48.112;16.280;2023-02-15T18:28:24;0.30;99.90
54788;DHT22;59598;48.112;16.280;2023-02-15T18:30:57;0.20;99.90
54788;DHT22;59598;48.112;16.280;2023-02-15T18:33:37;0.20;99.90
54788;DHT22;59598;48.112;16.280;2023-02-15T18:36:31;0.20;99.90
54788;DHT22;59598;48.112;16.280;2023-02-15T18:39:04;0.20;99.90
54788;DHT22;59598;48.112;16.280;2023-02-15T18:41:36;0.10;99.90
54788;DHT22;59598;48.112;16.280;2023-02-15T18:44:13;0.10;99.90
54788;DHT22;59598;48.112;16.280;2023-02-15T18:46:44;-0.10;99.90
54788;DHT22;59598;48.112;16.280;2023-02-15T18:49:18;-0.20;99.90
54788;DHT22;59598;48.112;16.280;2023-02-15T18:51:52;-0.30;99.90
54788;DHT22;59598;48.112;16.280;2023-02-15T18:54:24;-0.30;99.90
54788;DHT22;59598;48.112;16.280;2023-02-15T18:56:57;-0.40;99.90
54788;DHT22;59598;48.112;16.280;2023-02-15T18:59:30;-0.30;99.90
54788;DHT22;59598;48.112;16.280;2023-02-15T19:02:02;-0.20;99.90
54788;DHT22;59598;48.112;16.280;2023-02-15T19:04:33;-0.20;99.90
54788;DHT22;59598;48.112;16.280;2023-02-15T19:07:05;-0.20;99.90
54788;DHT22;59598;48.112;16.280;2023-02-15T19:09:43;-0.20;99.90
54788;DHT22;59598;48.112;16.280;2023-02-15T19:12:19;-0.20;99.90
54788;DHT22;59598;48.112;16.280;2023-02-15T19:14:51;-0.20;99.90
54788;DHT22;59598;48.112;16.280;2023-02-15T19:17:23;-0.20;99.90
54788;DHT22;59598;48.112;16.280;2023-02-15T19:19:55;-0.20;99.90
54788;DHT22;59598;48.112;16.280;2023-02-15T19:22:29;-0.30;99.90
54788;DHT22;59598;48.112;16.280;2023-02-15T19:25:04;-0.40;99.90
54788;DHT22;59598;48.112;16.280;2023-02-15T19:27:35;-0.50;99.90
54788;DHT22;59598;48.112;16.280;2023-02-15T19:30:14;-0.50;99.90
54788;DHT22;59598;48.112;16.280;2023-02-15T19:32:49;-0.50;99.90
54788;DHT22;59598;48.112;16.280;2023-02-15T19:35:22;-0.40;99.90
54788;DHT22;59598;48.112;16.280;2023-02-15T19:38:03;-0.40;99.90
54788;DHT22;59598;48.112;16.280;2023-02-15T19:40:37;-0.30;99.90
54788;DHT22;59598;48.112;16.280;2023-02-15T19:43:20;-0.40;99.90
54788;DHT22;59598;48.112;16.280;2023-02-15T19:45:56;-0.50;99.90
54788;DHT22;59598;48.112;16.280;2023-02-15T19:48:28;-0.50;99.90